| Date | Time | Temp. (oF) | Dew Point (oF) | Rel. Hum. (%) | Press. (in.) | Wind Dir. | Wind Speed (mph) | Hourly Rainfall (in.) |
|
|---|---|---|---|---|---|---|---|---|---|
| 1 | 01/15 | 00:00 | 31 | 19 | 63 | 30.54 | WNW | 7 | 0.00 |
| 2 | 01/14 | 23:00 | 33 | 24 | 70 | 30.52 | WNW | 7 | 0.00 |
| 3 | 01/14 | 22:00 | 34 | 24 | 69 | 30.51 | NW | 7 | 0.00 |
| 4 | 01/14 | 21:00 | 34 | 24 | 68 | 30.47 | WNW | 5 | 0.00 |
| 5 | 01/14 | 20:00 | 35 | 25 | 69 | 30.43 | WNW | 8 | 0.00 |
| 6 | 01/14 | 19:00 | 36 | 27 | 70 | 30.41 | WNW | 8 | 0.00 |
| 7 | 01/14 | 18:00 | 38 | 29 | 70 | 30.39 | WNW | 9 | 0.00 |
| 8 | 01/14 | 17:00 | 40 | 30 | 69 | 30.35 | NW | 4 | 0.00 |
| 9 | 01/14 | 16:00 | 40 | 30 | 70 | 30.31 | NNW | 7 | 0.00 |
| 10 | 01/14 | 15:00 | 41 | 32 | 72 | 30.28 | NNW | 10 | 0.00 |
| 11 | 01/14 | 14:00 | 41 | 33 | 75 | 30.23 | NW | 13 | 0.00 |
| 12 | 01/14 | 13:00 | 41 | 36 | 83 | 30.21 | NW | 8 | 0.00 |
| 13 | 01/14 | 12:00 | 40 | 37 | 89 | 30.18 | NNW | 13 | 0.00 |
| 14 | 01/14 | 11:00 | 38 | 37 | 100 | 30.19 | WSW | 5 | 0.00 |
| 15 | 01/14 | 10:00 | 36 | 36 | 100 | 30.14 | NW | 7 | 0.04 |
| 16 | 01/14 | 09:00 | 38 | 37 | 100 | 30.08 | WNW | 13 | 0.11 |
| 17 | 01/14 | 08:00 | 45 | 45 | 100 | 29.98 | NW | 12 | 0.13 |
| 18 | 01/14 | 07:00 | 50 | 50 | 100 | 29.92 | W | 13 | 0.17 |
| 19 | 01/14 | 06:00 | 56 | 55 | 100 | 29.82 | SSW | 4 | 0.09 |
| 20 | 01/14 | 05:00 | 56 | 55 | 100 | 29.82 | S | 4 | 0.12 |
| 21 | 01/14 | 04:00 | 57 | 57 | 100 | 29.81 | SSW | 4 | 0.48 |
| 22 | 01/14 | 03:00 | 63 | 63 | 100 | 29.75 | SW | 27 | 0.01 |
| 23 | 01/14 | 02:00 | 62 | 62 | 100 | 29.75 | S | 14 | 0.00 |
| 24 | 01/14 | 01:00 | 61 | 60 | 100 | 29.79 | S | 14 | 0.00 |